sensor_id;sensor_type;location;lat;lon;timestamp;P1;durP1;ratioP1;P2;durP2;ratioP2
15393;SDS011;7795;47.986;11.868;2023-03-24T00:01:54;2.70;;;2.40;;
15393;SDS011;7795;47.986;11.868;2023-03-24T00:04:26;2.77;;;2.47;;
15393;SDS011;7795;47.986;11.868;2023-03-24T00:06:53;2.77;;;2.30;;
15393;SDS011;7795;47.986;11.868;2023-03-24T00:09:23;2.47;;;1.83;;
15393;SDS011;7795;47.986;11.868;2023-03-24T00:11:52;3.47;;;2.60;;
15393;SDS011;7795;47.986;11.868;2023-03-24T00:14:18;3.03;;;2.60;;
15393;SDS011;7795;47.986;11.868;2023-03-24T00:16:44;2.63;;;2.03;;
15393;SDS011;7795;47.986;11.868;2023-03-24T00:19:11;2.47;;;2.27;;
15393;SDS011;7795;47.986;11.868;2023-03-24T00:21:41;3.30;;;2.30;;
15393;SDS011;7795;47.986;11.868;2023-03-24T00:24:09;3.00;;;2.43;;
15393;SDS011;7795;47.986;11.868;2023-03-24T00:26:37;2.97;;;2.23;;
15393;SDS011;7795;47.986;11.868;2023-03-24T00:29:05;3.80;;;2.37;;
15393;SDS011;7795;47.986;11.868;2023-03-24T00:31:32;3.13;;;2.60;;
15393;SDS011;7795;47.986;11.868;2023-03-24T00:34:02;2.67;;;2.43;;
15393;SDS011;7795;47.986;11.868;2023-03-24T00:36:29;3.50;;;3.00;;
15393;SDS011;7795;47.986;11.868;2023-03-24T00:38:58;2.67;;;2.37;;
15393;SDS011;7795;47.986;11.868;2023-03-24T00:41:26;3.67;;;2.50;;
15393;SDS011;7795;47.986;11.868;2023-03-24T00:43:56;3.03;;;2.53;;
15393;SDS011;7795;47.986;11.868;2023-03-24T00:46:24;2.90;;;2.40;;
15393;SDS011;7795;47.986;11.868;2023-03-24T00:48:53;2.60;;;2.30;;
15393;SDS011;7795;47.986;11.868;2023-03-24T00:51:27;3.43;;;2.70;;
15393;SDS011;7795;47.986;11.868;2023-03-24T00:53:54;4.07;;;2.40;;
15393;SDS011;7795;47.986;11.868;2023-03-24T00:56:22;5.47;;;2.37;;
15393;SDS011;7795;47.986;11.868;2023-03-24T00:58:55;2.60;;;2.40;;
15393;SDS011;7795;47.986;11.868;2023-03-24T01:01:22;3.53;;;2.43;;
15393;SDS011;7795;47.986;11.868;2023-03-24T01:03:49;2.67;;;2.47;;
15393;SDS011;7795;47.986;11.868;2023-03-24T01:06:15;3.67;;;2.70;;
15393;SDS011;7795;47.986;11.868;2023-03-24T01:08:42;3.27;;;2.80;;
15393;SDS011;7795;47.986;11.868;2023-03-24T01:11:09;2.97;;;2.40;;
15393;SDS011;7795;47.986;11.868;2023-03-24T01:13:36;2.67;;;2.37;;
15393;SDS011;7795;47.986;11.868;2023-03-24T01:16:03;5.80;;;2.90;;
15393;SDS011;7795;47.986;11.868;2023-03-24T01:18:30;2.97;;;1.93;;
15393;SDS011;7795;47.986;11.868;2023-03-24T01:20:59;4.80;;;3.00;;
15393;SDS011;7795;47.986;11.868;2023-03-24T01:23:28;3.33;;;2.40;;
15393;SDS011;7795;47.986;11.868;2023-03-24T01:25:55;2.80;;;2.40;;
15393;SDS011;7795;47.986;11.868;2023-03-24T01:28:22;4.33;;;2.50;;
15393;SDS011;7795;47.986;11.868;2023-03-24T01:30:50;3.10;;;2.80;;
15393;SDS011;7795;47.986;11.868;2023-03-24T01:33:17;4.47;;;2.83;;
15393;SDS011;7795;47.986;11.868;2023-03-24T01:35:43;2.47;;;2.07;;
15393;SDS011;7795;47.986;11.868;2023-03-24T01:38:10;4.10;;;2.90;;
15393;SDS011;7795;47.986;11.868;2023-03-24T01:40:38;3.63;;;2.90;;
15393;SDS011;7795;47.986;11.868;2023-03-24T01:43:05;2.60;;;2.40;;
15393;SDS011;7795;47.986;11.868;2023-03-24T01:45:42;2.63;;;2.33;;
15393;SDS011;7795;47.986;11.868;2023-03-24T01:48:21;3.60;;;2.83;;
15393;SDS011;7795;47.986;11.868;2023-03-24T01:50:51;2.97;;;2.37;;
15393;SDS011;7795;47.986;11.868;2023-03-24T01:53:27;2.40;;;2.20;;
15393;SDS011;7795;47.986;11.868;2023-03-24T01:55:55;4.17;;;2.50;;
15393;SDS011;7795;47.986;11.868;2023-03-24T01:58:22;2.83;;;2.53;;
15393;SDS011;7795;47.986;11.868;2023-03-24T02:00:53;2.77;;;2.43;;
15393;SDS011;7795;47.986;11.868;2023-03-24T02:03:20;4.53;;;2.13;;
15393;SDS011;7795;47.986;11.868;2023-03-24T02:05:49;6.37;;;2.53;;
15393;SDS011;7795;47.986;11.868;2023-03-24T02:08:18;4.40;;;2.40;;
15393;SDS011;7795;47.986;11.868;2023-03-24T02:10:50;3.43;;;2.70;;
15393;SDS011;7795;47.986;11.868;2023-03-24T02:13:19;2.80;;;2.03;;
15393;SDS011;7795;47.986;11.868;2023-03-24T02:15:49;4.53;;;2.90;;
15393;SDS011;7795;47.986;11.868;2023-03-24T02:18:24;2.23;;;2.03;;
15393;SDS011;7795;47.986;11.868;2023-03-24T02:21:20;5.57;;;2.60;;
15393;SDS011;7795;47.986;11.868;2023-03-24T02:27:05;2.87;;;2.27;;
15393;SDS011;7795;47.986;11.868;2023-03-24T02:35:48;3.80;;;2.97;;
15393;SDS011;7795;47.986;11.868;2023-03-24T02:41:22;3.07;;;2.77;;
15393;SDS011;7795;47.986;11.868;2023-03-24T02:43:57;3.30;;;2.67;;
15393;SDS011;7795;47.986;11.868;2023-03-24T02:46:32;2.83;;;2.27;;
15393;SDS011;7795;47.986;11.868;2023-03-24T02:49:06;4.57;;;2.83;;
15393;SDS011;7795;47.986;11.868;2023-03-24T02:51:43;3.77;;;3.07;;
15393;SDS011;7795;47.986;11.868;2023-03-24T02:54:15;10.40;;;3.53;;
15393;SDS011;7795;47.986;11.868;2023-03-24T02:56:46;3.07;;;2.77;;
15393;SDS011;7795;47.986;11.868;2023-03-24T02:59:18;3.77;;;3.00;;
15393;SDS011;7795;47.986;11.868;2023-03-24T03:01:52;4.43;;;2.97;;
15393;SDS011;7795;47.986;11.868;2023-03-24T03:04:23;3.87;;;3.40;;
15393;SDS011;7795;47.986;11.868;2023-03-24T03:06:54;4.43;;;3.17;;
15393;SDS011;7795;47.986;11.868;2023-03-24T03:09:23;3.63;;;2.90;;
15393;SDS011;7795;47.986;11.868;2023-03-24T03:11:53;3.33;;;2.90;;
15393;SDS011;7795;47.986;11.868;2023-03-24T03:14:23;3.70;;;3.10;;
15393;SDS011;7795;47.986;11.868;2023-03-24T03:16:53;3.17;;;2.87;;
15393;SDS011;7795;47.986;11.868;2023-03-24T03:19:26;4.20;;;2.87;;
15393;SDS011;7795;47.986;11.868;2023-03-24T03:21:54;5.30;;;2.73;;
15393;SDS011;7795;47.986;11.868;2023-03-24T03:24:23;3.20;;;2.77;;
15393;SDS011;7795;47.986;11.868;2023-03-24T03:26:54;3.50;;;2.90;;
15393;SDS011;7795;47.986;11.868;2023-03-24T03:29:25;4.00;;;2.93;;
15393;SDS011;7795;47.986;11.868;2023-03-24T03:31:58;2.87;;;2.57;;
15393;SDS011;7795;47.986;11.868;2023-03-24T03:34:35;4.43;;;2.97;;
15393;SDS011;7795;47.986;11.868;2023-03-24T03:37:07;2.97;;;2.60;;
15393;SDS011;7795;47.986;11.868;2023-03-24T03:39:39;3.43;;;2.37;;
15393;SDS011;7795;47.986;11.868;2023-03-24T03:42:13;3.67;;;2.73;;
15393;SDS011;7795;47.986;11.868;2023-03-24T03:44:41;3.50;;;2.50;;
15393;SDS011;7795;47.986;11.868;2023-03-24T03:47:08;3.27;;;2.93;;
15393;SDS011;7795;47.986;11.868;2023-03-24T03:49:35;2.97;;;2.63;;
15393;SDS011;7795;47.986;11.868;2023-03-24T03:52:02;3.33;;;2.67;;
15393;SDS011;7795;47.986;11.868;2023-03-24T03:54:29;4.20;;;2.83;;
15393;SDS011;7795;47.986;11.868;2023-03-24T03:56:57;3.10;;;2.80;;
15393;SDS011;7795;47.986;11.868;2023-03-24T03:59:27;4.40;;;2.90;;
15393;SDS011;7795;47.986;11.868;2023-03-24T04:01:54;4.43;;;3.40;;
15393;SDS011;7795;47.986;11.868;2023-03-24T04:07:14;5.00;;;3.40;;
15393;SDS011;7795;47.986;11.868;2023-03-24T04:09:49;3.17;;;2.80;;
15393;SDS011;7795;47.986;11.868;2023-03-24T04:12:40;4.00;;;3.23;;
15393;SDS011;7795;47.986;11.868;2023-03-24T04:15:28;4.37;;;2.87;;
15393;SDS011;7795;47.986;11.868;2023-03-24T04:18:03;3.27;;;2.83;;
15393;SDS011;7795;47.986;11.868;2023-03-24T04:20:39;5.10;;;3.03;;
15393;SDS011;7795;47.986;11.868;2023-03-24T04:23:13;3.80;;;3.30;;
15393;SDS011;7795;47.986;11.868;2023-03-24T04:25:50;5.13;;;3.40;;
15393;SDS011;7795;47.986;11.868;2023-03-24T04:28:27;2.93;;;2.67;;
15393;SDS011;7795;47.986;11.868;2023-03-24T04:31:03;3.97;;;2.90;;
15393;SDS011;7795;47.986;11.868;2023-03-24T04:33:39;5.80;;;2.87;;
15393;SDS011;7795;47.986;11.868;2023-03-24T04:36:14;3.23;;;2.63;;
15393;SDS011;7795;47.986;11.868;2023-03-24T04:38:47;4.20;;;3.10;;
15393;SDS011;7795;47.986;11.868;2023-03-24T04:41:17;4.73;;;3.03;;
15393;SDS011;7795;47.986;11.868;2023-03-24T04:43:45;5.00;;;3.40;;
15393;SDS011;7795;47.986;11.868;2023-03-24T04:46:13;4.23;;;3.30;;
15393;SDS011;7795;47.986;11.868;2023-03-24T04:48:42;4.73;;;2.90;;
15393;SDS011;7795;47.986;11.868;2023-03-24T04:51:08;3.43;;;2.80;;
15393;SDS011;7795;47.986;11.868;2023-03-24T04:53:35;5.43;;;3.30;;
15393;SDS011;7795;47.986;11.868;2023-03-24T04:56:03;3.33;;;2.83;;
15393;SDS011;7795;47.986;11.868;2023-03-24T04:58:40;8.87;;;3.37;;
15393;SDS011;7795;47.986;11.868;2023-03-24T05:01:06;11.03;;;4.00;;
15393;SDS011;7795;47.986;11.868;2023-03-24T05:03:35;6.33;;;3.20;;
15393;SDS011;7795;47.986;11.868;2023-03-24T05:06:02;3.70;;;2.70;;
15393;SDS011;7795;47.986;11.868;2023-03-24T05:08:29;7.17;;;3.33;;
15393;SDS011;7795;47.986;11.868;2023-03-24T05:10:55;9.87;;;3.90;;
15393;SDS011;7795;47.986;11.868;2023-03-24T05:13:21;6.13;;;3.43;;
15393;SDS011;7795;47.986;11.868;2023-03-24T05:15:47;4.60;;;3.27;;
15393;SDS011;7795;47.986;11.868;2023-03-24T05:18:13;6.13;;;3.10;;
15393;SDS011;7795;47.986;11.868;2023-03-24T05:20:42;8.93;;;3.93;;
15393;SDS011;7795;47.986;11.868;2023-03-24T05:23:08;7.40;;;4.10;;
15393;SDS011;7795;47.986;11.868;2023-03-24T05:25:34;6.47;;;3.40;;
15393;SDS011;7795;47.986;11.868;2023-03-24T05:28:00;4.13;;;2.90;;
15393;SDS011;7795;47.986;11.868;2023-03-24T05:30:26;5.90;;;4.13;;
15393;SDS011;7795;47.986;11.868;2023-03-24T05:32:52;5.90;;;3.73;;
15393;SDS011;7795;47.986;11.868;2023-03-24T05:35:18;5.50;;;4.23;;
15393;SDS011;7795;47.986;11.868;2023-03-24T05:37:46;4.80;;;3.23;;
15393;SDS011;7795;47.986;11.868;2023-03-24T05:40:12;4.17;;;3.40;;
15393;SDS011;7795;47.986;11.868;2023-03-24T05:42:39;6.63;;;3.97;;
15393;SDS011;7795;47.986;11.868;2023-03-24T05:45:06;3.90;;;3.30;;
15393;SDS011;7795;47.986;11.868;2023-03-24T05:47:34;3.67;;;3.37;;
15393;SDS011;7795;47.986;11.868;2023-03-24T05:50:00;4.23;;;3.77;;
15393;SDS011;7795;47.986;11.868;2023-03-24T05:52:26;3.50;;;3.20;;
15393;SDS011;7795;47.986;11.868;2023-03-24T05:54:54;4.90;;;3.80;;
15393;SDS011;7795;47.986;11.868;2023-03-24T05:57:20;3.70;;;3.30;;
15393;SDS011;7795;47.986;11.868;2023-03-24T05:59:48;4.90;;;3.80;;
15393;SDS011;7795;47.986;11.868;2023-03-24T06:02:16;4.77;;;4.27;;
15393;SDS011;7795;47.986;11.868;2023-03-24T06:04:42;4.23;;;3.40;;
15393;SDS011;7795;47.986;11.868;2023-03-24T06:07:10;3.77;;;3.37;;
15393;SDS011;7795;47.986;11.868;2023-03-24T06:09:36;4.43;;;3.23;;
15393;SDS011;7795;47.986;11.868;2023-03-24T06:12:10;4.50;;;3.10;;
15393;SDS011;7795;47.986;11.868;2023-03-24T06:14:37;5.53;;;3.80;;
15393;SDS011;7795;47.986;11.868;2023-03-24T06:17:03;4.83;;;3.23;;
15393;SDS011;7795;47.986;11.868;2023-03-24T06:19:31;3.63;;;3.33;;
15393;SDS011;7795;47.986;11.868;2023-03-24T06:22:07;5.20;;;3.53;;
15393;SDS011;7795;47.986;11.868;2023-03-24T06:24:33;4.40;;;3.53;;
15393;SDS011;7795;47.986;11.868;2023-03-24T06:26:59;4.37;;;3.40;;
15393;SDS011;7795;47.986;11.868;2023-03-24T06:29:26;3.77;;;3.20;;
15393;SDS011;7795;47.986;11.868;2023-03-24T06:31:53;3.63;;;3.17;;
15393;SDS011;7795;47.986;11.868;2023-03-24T06:34:18;4.20;;;3.30;;
15393;SDS011;7795;47.986;11.868;2023-03-24T06:36:46;3.87;;;3.33;;
15393;SDS011;7795;47.986;11.868;2023-03-24T06:39:13;6.90;;;3.60;;
15393;SDS011;7795;47.986;11.868;2023-03-24T06:41:39;4.03;;;3.43;;
15393;SDS011;7795;47.986;11.868;2023-03-24T06:44:05;4.03;;;3.63;;
15393;SDS011;7795;47.986;11.868;2023-03-24T06:46:30;5.10;;;3.47;;
15393;SDS011;7795;47.986;11.868;2023-03-24T06:48:56;6.03;;;4.23;;
15393;SDS011;7795;47.986;11.868;2023-03-24T06:51:22;5.53;;;3.60;;
15393;SDS011;7795;47.986;11.868;2023-03-24T06:53:47;5.73;;;4.33;;
15393;SDS011;7795;47.986;11.868;2023-03-24T06:56:15;5.17;;;4.00;;
15393;SDS011;7795;47.986;11.868;2023-03-24T06:58:42;6.43;;;4.07;;
15393;SDS011;7795;47.986;11.868;2023-03-24T07:01:08;7.73;;;4.60;;
15393;SDS011;7795;47.986;11.868;2023-03-24T07:03:35;6.83;;;3.80;;
15393;SDS011;7795;47.986;11.868;2023-03-24T07:06:01;6.03;;;4.50;;
15393;SDS011;7795;47.986;11.868;2023-03-24T07:08:27;7.73;;;4.73;;
15393;SDS011;7795;47.986;11.868;2023-03-24T07:10:53;5.90;;;4.63;;
15393;SDS011;7795;47.986;11.868;2023-03-24T07:13:21;5.47;;;4.87;;
15393;SDS011;7795;47.986;11.868;2023-03-24T07:15:47;8.67;;;5.47;;
15393;SDS011;7795;47.986;11.868;2023-03-24T07:18:13;8.27;;;4.97;;
15393;SDS011;7795;47.986;11.868;2023-03-24T07:20:38;10.33;;;5.30;;
15393;SDS011;7795;47.986;11.868;2023-03-24T07:23:04;9.13;;;5.60;;
15393;SDS011;7795;47.986;11.868;2023-03-24T07:25:30;9.20;;;4.73;;
15393;SDS011;7795;47.986;11.868;2023-03-24T07:27:56;12.03;;;5.87;;
15393;SDS011;7795;47.986;11.868;2023-03-24T07:30:23;8.63;;;5.20;;
15393;SDS011;7795;47.986;11.868;2023-03-24T07:32:49;8.33;;;5.10;;
15393;SDS011;7795;47.986;11.868;2023-03-24T07:35:16;8.67;;;5.10;;
15393;SDS011;7795;47.986;11.868;2023-03-24T07:37:42;10.60;;;5.77;;
15393;SDS011;7795;47.986;11.868;2023-03-24T07:40:09;10.83;;;5.43;;
15393;SDS011;7795;47.986;11.868;2023-03-24T07:42:39;10.13;;;5.17;;
15393;SDS011;7795;47.986;11.868;2023-03-24T07:45:06;11.50;;;6.07;;
15393;SDS011;7795;47.986;11.868;2023-03-24T07:47:35;8.07;;;5.43;;
15393;SDS011;7795;47.986;11.868;2023-03-24T07:50:01;8.23;;;4.53;;
15393;SDS011;7795;47.986;11.868;2023-03-24T07:52:28;5.30;;;4.40;;
15393;SDS011;7795;47.986;11.868;2023-03-24T07:54:54;6.57;;;4.63;;
15393;SDS011;7795;47.986;11.868;2023-03-24T07:57:20;11.33;;;5.17;;
15393;SDS011;7795;47.986;11.868;2023-03-24T07:59:46;13.77;;;11.17;;
15393;SDS011;7795;47.986;11.868;2023-03-24T08:02:15;12.70;;;8.90;;
15393;SDS011;7795;47.986;11.868;2023-03-24T08:04:42;10.20;;;6.17;;
15393;SDS011;7795;47.986;11.868;2023-03-24T08:07:08;6.87;;;5.03;;
15393;SDS011;7795;47.986;11.868;2023-03-24T08:09:36;6.27;;;4.77;;
15393;SDS011;7795;47.986;11.868;2023-03-24T08:12:02;7.07;;;4.87;;
15393;SDS011;7795;47.986;11.868;2023-03-24T08:14:28;7.30;;;4.63;;
15393;SDS011;7795;47.986;11.868;2023-03-24T08:16:54;5.07;;;3.63;;
15393;SDS011;7795;47.986;11.868;2023-03-24T08:19:20;5.73;;;4.13;;
15393;SDS011;7795;47.986;11.868;2023-03-24T08:21:47;6.53;;;4.07;;
15393;SDS011;7795;47.986;11.868;2023-03-24T08:24:12;6.90;;;4.30;;
15393;SDS011;7795;47.986;11.868;2023-03-24T08:26:38;4.53;;;3.93;;
15393;SDS011;7795;47.986;11.868;2023-03-24T08:29:06;4.33;;;3.60;;
15393;SDS011;7795;47.986;11.868;2023-03-24T08:31:33;5.50;;;4.70;;
15393;SDS011;7795;47.986;11.868;2023-03-24T08:33:59;8.57;;;4.13;;
15393;SDS011;7795;47.986;11.868;2023-03-24T08:36:25;8.23;;;4.97;;
15393;SDS011;7795;47.986;11.868;2023-03-24T08:38:53;5.47;;;3.97;;
15393;SDS011;7795;47.986;11.868;2023-03-24T08:41:19;5.57;;;4.20;;
15393;SDS011;7795;47.986;11.868;2023-03-24T08:43:45;5.23;;;3.83;;
15393;SDS011;7795;47.986;11.868;2023-03-24T08:46:11;5.87;;;3.77;;
15393;SDS011;7795;47.986;11.868;2023-03-24T08:48:37;5.17;;;3.93;;
15393;SDS011;7795;47.986;11.868;2023-03-24T08:51:08;5.10;;;3.63;;
15393;SDS011;7795;47.986;11.868;2023-03-24T08:53:36;5.80;;;3.77;;
15393;SDS011;7795;47.986;11.868;2023-03-24T08:56:03;3.67;;;3.37;;
15393;SDS011;7795;47.986;11.868;2023-03-24T08:58:30;5.10;;;4.00;;
15393;SDS011;7795;47.986;11.868;2023-03-24T09:00:55;6.93;;;4.87;;
15393;SDS011;7795;47.986;11.868;2023-03-24T09:03:21;7.93;;;4.77;;
15393;SDS011;7795;47.986;11.868;2023-03-24T09:05:48;5.07;;;4.13;;
15393;SDS011;7795;47.986;11.868;2023-03-24T09:08:14;4.97;;;4.50;;
15393;SDS011;7795;47.986;11.868;2023-03-24T09:10:41;5.77;;;4.97;;
15393;SDS011;7795;47.986;11.868;2023-03-24T09:13:09;5.27;;;4.77;;
15393;SDS011;7795;47.986;11.868;2023-03-24T09:15:35;4.63;;;4.23;;
15393;SDS011;7795;47.986;11.868;2023-03-24T09:18:01;5.03;;;4.53;;
15393;SDS011;7795;47.986;11.868;2023-03-24T09:20:27;8.27;;;4.77;;
15393;SDS011;7795;47.986;11.868;2023-03-24T09:22:53;4.47;;;4.03;;
15393;SDS011;7795;47.986;11.868;2023-03-24T09:25:20;4.03;;;3.63;;
15393;SDS011;7795;47.986;11.868;2023-03-24T09:27:47;3.30;;;2.97;;
15393;SDS011;7795;47.986;11.868;2023-03-24T09:30:15;3.47;;;3.17;;
15393;SDS011;7795;47.986;11.868;2023-03-24T09:32:42;2.73;;;2.53;;
15393;SDS011;7795;47.986;11.868;2023-03-24T09:35:08;3.00;;;2.70;;
15393;SDS011;7795;47.986;11.868;2023-03-24T09:37:35;3.90;;;2.53;;
15393;SDS011;7795;47.986;11.868;2023-03-24T09:40:03;5.10;;;2.97;;
15393;SDS011;7795;47.986;11.868;2023-03-24T09:42:31;2.43;;;2.23;;
15393;SDS011;7795;47.986;11.868;2023-03-24T09:45:00;3.07;;;2.77;;
15393;SDS011;7795;47.986;11.868;2023-03-24T09:47:33;7.57;;;2.90;;
15393;SDS011;7795;47.986;11.868;2023-03-24T09:50:06;3.00;;;2.60;;
15393;SDS011;7795;47.986;11.868;2023-03-24T09:52:41;2.77;;;2.20;;
15393;SDS011;7795;47.986;11.868;2023-03-24T09:55:12;3.23;;;2.63;;
15393;SDS011;7795;47.986;11.868;2023-03-24T09:57:43;2.90;;;2.40;;
15393;SDS011;7795;47.986;11.868;2023-03-24T10:00:16;2.67;;;2.10;;
15393;SDS011;7795;47.986;11.868;2023-03-24T10:02:46;2.40;;;2.20;;
15393;SDS011;7795;47.986;11.868;2023-03-24T10:05:13;2.47;;;2.00;;
15393;SDS011;7795;47.986;11.868;2023-03-24T10:07:42;2.53;;;2.10;;
15393;SDS011;7795;47.986;11.868;2023-03-24T10:10:17;2.13;;;1.90;;
15393;SDS011;7795;47.986;11.868;2023-03-24T10:12:47;2.73;;;1.87;;
15393;SDS011;7795;47.986;11.868;2023-03-24T10:15:15;3.97;;;2.00;;
15393;SDS011;7795;47.986;11.868;2023-03-24T10:17:51;2.23;;;1.67;;
15393;SDS011;7795;47.986;11.868;2023-03-24T10:20:26;1.90;;;1.80;;
15393;SDS011;7795;47.986;11.868;2023-03-24T10:22:59;2.77;;;1.90;;
15393;SDS011;7795;47.986;11.868;2023-03-24T10:25:38;2.27;;;1.93;;
15393;SDS011;7795;47.986;11.868;2023-03-24T10:28:15;2.90;;;1.80;;
15393;SDS011;7795;47.986;11.868;2023-03-24T10:30:44;2.47;;;1.80;;
15393;SDS011;7795;47.986;11.868;2023-03-24T10:33:13;2.83;;;1.50;;
15393;SDS011;7795;47.986;11.868;2023-03-24T10:35:40;2.50;;;1.83;;
15393;SDS011;7795;47.986;11.868;2023-03-24T10:38:12;3.63;;;2.03;;
15393;SDS011;7795;47.986;11.868;2023-03-24T10:40:41;1.87;;;1.57;;
15393;SDS011;7795;47.986;11.868;2023-03-24T10:43:07;2.87;;;2.10;;
15393;SDS011;7795;47.986;11.868;2023-03-24T10:45:34;3.40;;;1.97;;
15393;SDS011;7795;47.986;11.868;2023-03-24T10:48:01;3.00;;;2.10;;
15393;SDS011;7795;47.986;11.868;2023-03-24T10:50:30;2.67;;;2.00;;
15393;SDS011;7795;47.986;11.868;2023-03-24T10:52:57;2.80;;;2.23;;
15393;SDS011;7795;47.986;11.868;2023-03-24T10:55:27;2.80;;;2.07;;
15393;SDS011;7795;47.986;11.868;2023-03-24T10:57:56;2.90;;;2.10;;
15393;SDS011;7795;47.986;11.868;2023-03-24T11:00:23;4.93;;;3.10;;
15393;SDS011;7795;47.986;11.868;2023-03-24T11:02:54;2.97;;;2.23;;
15393;SDS011;7795;47.986;11.868;2023-03-24T11:05:25;2.43;;;2.10;;
15393;SDS011;7795;47.986;11.868;2023-03-24T11:07:56;4.30;;;2.70;;
15393;SDS011;7795;47.986;11.868;2023-03-24T11:10:34;3.10;;;2.30;;
15393;SDS011;7795;47.986;11.868;2023-03-24T11:13:00;2.27;;;2.07;;
15393;SDS011;7795;47.986;11.868;2023-03-24T11:15:29;6.70;;;2.83;;
15393;SDS011;7795;47.986;11.868;2023-03-24T11:17:56;4.30;;;2.80;;
15393;SDS011;7795;47.986;11.868;2023-03-24T11:20:25;2.83;;;2.10;;
15393;SDS011;7795;47.986;11.868;2023-03-24T11:23:00;3.30;;;2.40;;
15393;SDS011;7795;47.986;11.868;2023-03-24T11:25:28;3.93;;;2.50;;
15393;SDS011;7795;47.986;11.868;2023-03-24T11:27:56;2.57;;;2.37;;
15393;SDS011;7795;47.986;11.868;2023-03-24T11:30:25;3.43;;;2.17;;
15393;SDS011;7795;47.986;11.868;2023-03-24T11:32:55;4.87;;;2.30;;
15393;SDS011;7795;47.986;11.868;2023-03-24T11:35:22;3.50;;;2.57;;
15393;SDS011;7795;47.986;11.868;2023-03-24T11:37:48;3.17;;;2.60;;
15393;SDS011;7795;47.986;11.868;2023-03-24T11:40:20;4.43;;;2.07;;
15393;SDS011;7795;47.986;11.868;2023-03-24T11:42:48;3.40;;;2.80;;
15393;SDS011;7795;47.986;11.868;2023-03-24T11:45:22;5.43;;;2.97;;
15393;SDS011;7795;47.986;11.868;2023-03-24T11:47:53;2.47;;;2.07;;
15393;SDS011;7795;47.986;11.868;2023-03-24T11:50:22;2.17;;;1.80;;
15393;SDS011;7795;47.986;11.868;2023-03-24T11:52:51;4.13;;;2.20;;
15393;SDS011;7795;47.986;11.868;2023-03-24T11:55:26;4.87;;;2.77;;
15393;SDS011;7795;47.986;11.868;2023-03-24T11:57:58;4.30;;;2.60;;
15393;SDS011;7795;47.986;11.868;2023-03-24T12:00:28;6.07;;;2.77;;
15393;SDS011;7795;47.986;11.868;2023-03-24T12:03:00;3.63;;;3.13;;
15393;SDS011;7795;47.986;11.868;2023-03-24T12:05:41;3.50;;;2.43;;
15393;SDS011;7795;47.986;11.868;2023-03-24T12:08:15;3.20;;;2.53;;
15393;SDS011;7795;47.986;11.868;2023-03-24T12:11:04;7.63;;;4.00;;
15393;SDS011;7795;47.986;11.868;2023-03-24T12:13:35;3.67;;;2.83;;
15393;SDS011;7795;47.986;11.868;2023-03-24T12:16:21;4.90;;;2.90;;
15393;SDS011;7795;47.986;11.868;2023-03-24T12:19:03;3.47;;;2.90;;
15393;SDS011;7795;47.986;11.868;2023-03-24T12:21:45;4.07;;;2.77;;
15393;SDS011;7795;47.986;11.868;2023-03-24T12:24:20;4.10;;;3.10;;
15393;SDS011;7795;47.986;11.868;2023-03-24T12:26:55;3.90;;;3.40;;
15393;SDS011;7795;47.986;11.868;2023-03-24T12:29:33;5.33;;;3.57;;
15393;SDS011;7795;47.986;11.868;2023-03-24T12:32:19;5.43;;;2.90;;
15393;SDS011;7795;47.986;11.868;2023-03-24T12:35:06;4.73;;;3.10;;
15393;SDS011;7795;47.986;11.868;2023-03-24T12:37:42;4.87;;;3.57;;
15393;SDS011;7795;47.986;11.868;2023-03-24T12:40:26;3.70;;;3.30;;
15393;SDS011;7795;47.986;11.868;2023-03-24T12:43:08;3.60;;;3.10;;
15393;SDS011;7795;47.986;11.868;2023-03-24T12:45:44;4.33;;;2.50;;
15393;SDS011;7795;47.986;11.868;2023-03-24T12:48:16;3.00;;;2.53;;
15393;SDS011;7795;47.986;11.868;2023-03-24T12:51:01;3.00;;;2.70;;
15393;SDS011;7795;47.986;11.868;2023-03-24T12:53:41;3.87;;;2.40;;
15393;SDS011;7795;47.986;11.868;2023-03-24T12:56:18;3.33;;;2.60;;
15393;SDS011;7795;47.986;11.868;2023-03-24T12:58:49;3.80;;;2.57;;
15393;SDS011;7795;47.986;11.868;2023-03-24T13:01:19;2.73;;;2.50;;
15393;SDS011;7795;47.986;11.868;2023-03-24T13:03:51;2.90;;;2.40;;
15393;SDS011;7795;47.986;11.868;2023-03-24T13:06:22;3.87;;;2.83;;
15393;SDS011;7795;47.986;11.868;2023-03-24T13:08:56;3.67;;;2.80;;
15393;SDS011;7795;47.986;11.868;2023-03-24T13:11:30;3.60;;;3.07;;
15393;SDS011;7795;47.986;11.868;2023-03-24T13:14:02;3.83;;;2.67;;
15393;SDS011;7795;47.986;11.868;2023-03-24T13:16:35;3.50;;;3.20;;
15393;SDS011;7795;47.986;11.868;2023-03-24T13:19:04;3.20;;;2.90;;
15393;SDS011;7795;47.986;11.868;2023-03-24T13:21:40;3.60;;;2.90;;
15393;SDS011;7795;47.986;11.868;2023-03-24T13:24:08;4.87;;;2.90;;
15393;SDS011;7795;47.986;11.868;2023-03-24T13:26:37;4.90;;;3.53;;
15393;SDS011;7795;47.986;11.868;2023-03-24T13:29:09;4.37;;;3.00;;
15393;SDS011;7795;47.986;11.868;2023-03-24T13:31:48;3.90;;;3.10;;
15393;SDS011;7795;47.986;11.868;2023-03-24T13:34:22;3.30;;;2.93;;
15393;SDS011;7795;47.986;11.868;2023-03-24T13:36:52;4.63;;;3.17;;
15393;SDS011;7795;47.986;11.868;2023-03-24T13:39:21;2.60;;;2.40;;
15393;SDS011;7795;47.986;11.868;2023-03-24T13:41:51;3.20;;;2.47;;
15393;SDS011;7795;47.986;11.868;2023-03-24T13:44:20;2.37;;;2.17;;
15393;SDS011;7795;47.986;11.868;2023-03-24T13:47:04;2.60;;;2.03;;
15393;SDS011;7795;47.986;11.868;2023-03-24T13:49:37;2.43;;;2.23;;
15393;SDS011;7795;47.986;11.868;2023-03-24T13:52:04;2.30;;;2.10;;
15393;SDS011;7795;47.986;11.868;2023-03-24T13:54:43;3.10;;;2.70;;
15393;SDS011;7795;47.986;11.868;2023-03-24T13:57:11;2.70;;;2.40;;
15393;SDS011;7795;47.986;11.868;2023-03-24T13:59:56;2.27;;;2.00;;
15393;SDS011;7795;47.986;11.868;2023-03-24T14:02:42;2.20;;;1.93;;
15393;SDS011;7795;47.986;11.868;2023-03-24T14:08:33;2.33;;;2.13;;
15393;SDS011;7795;47.986;11.868;2023-03-24T14:11:08;2.90;;;2.40;;
15393;SDS011;7795;47.986;11.868;2023-03-24T14:13:50;2.80;;;2.60;;
15393;SDS011;7795;47.986;11.868;2023-03-24T14:16:41;5.20;;;2.53;;
15393;SDS011;7795;47.986;11.868;2023-03-24T14:19:16;2.83;;;2.50;;
15393;SDS011;7795;47.986;11.868;2023-03-24T14:21:57;3.03;;;2.33;;
15393;SDS011;7795;47.986;11.868;2023-03-24T14:24:33;2.67;;;2.00;;
15393;SDS011;7795;47.986;11.868;2023-03-24T14:27:03;2.20;;;2.00;;
15393;SDS011;7795;47.986;11.868;2023-03-24T14:29:57;1.73;;;1.60;;
15393;SDS011;7795;47.986;11.868;2023-03-24T14:32:26;2.07;;;1.87;;
15393;SDS011;7795;47.986;11.868;2023-03-24T14:34:53;1.73;;;1.30;;
15393;SDS011;7795;47.986;11.868;2023-03-24T14:37:23;1.27;;;1.17;;
15393;SDS011;7795;47.986;11.868;2023-03-24T14:39:51;2.00;;;1.40;;
15393;SDS011;7795;47.986;11.868;2023-03-24T14:45:52;1.27;;;1.17;;
15393;SDS011;7795;47.986;11.868;2023-03-24T14:48:24;1.37;;;1.00;;
15393;SDS011;7795;47.986;11.868;2023-03-24T14:50:53;1.67;;;1.20;;
15393;SDS011;7795;47.986;11.868;2023-03-24T14:53:24;1.50;;;1.30;;
15393;SDS011;7795;47.986;11.868;2023-03-24T14:55:50;1.87;;;1.03;;
15393;SDS011;7795;47.986;11.868;2023-03-24T14:58:19;1.07;;;0.90;;
15393;SDS011;7795;47.986;11.868;2023-03-24T15:00:49;4.13;;;1.30;;
15393;SDS011;7795;47.986;11.868;2023-03-24T15:03:17;2.37;;;0.73;;
15393;SDS011;7795;47.986;11.868;2023-03-24T15:05:50;1.10;;;1.00;;
15393;SDS011;7795;47.986;11.868;2023-03-24T15:08:16;2.20;;;1.10;;
15393;SDS011;7795;47.986;11.868;2023-03-24T15:10:46;3.00;;;1.10;;
15393;SDS011;7795;47.986;11.868;2023-03-24T15:16:00;1.87;;;1.13;;
15393;SDS011;7795;47.986;11.868;2023-03-24T15:18:30;0.97;;;0.70;;
15393;SDS011;7795;47.986;11.868;2023-03-24T15:20:58;2.70;;;1.00;;
15393;SDS011;7795;47.986;11.868;2023-03-24T15:23:24;1.17;;;1.00;;
15393;SDS011;7795;47.986;11.868;2023-03-24T15:25:52;1.53;;;0.70;;
15393;SDS011;7795;47.986;11.868;2023-03-24T15:28:19;0.87;;;0.77;;
15393;SDS011;7795;47.986;11.868;2023-03-24T15:30:46;0.70;;;0.70;;